Harmony V — SX8327 — position and weather

sailwx.info

Track history (hours):
 
Tides and Currents Weather Stations Pressure Air Temp Water Temp Dewpoint Dewpoint Depression Visibility Wind Speed Wind Dir Waves Ship Positions

Harmony V

Last reported at 2017-Sep-12 21:25 UTC. Time now 2017-Sep-21 18:07 UTC.
Position N 37°29' E 023°30'.
Warning: this ship's position is 8 days out of date.

Length 56 m; draft 3.2 m.

Type: Ship. MMSI: 240937000.

Date/timePositionNaut miles runAvg speedWind from/ knotsBaromVisibWave heightAir tempDewpointWater temp
2017-Sep-12 21:25N 37°29' E 023°30'6 1.3
2017-Sep-12 16:37N 37°34' E 023°27'1 8.2
2017-Sep-12 16:30N 37°35' E 023°27'6 8.2
2017-Sep-12 15:45N 37°40' E 023°31'2 8.1
2017-Sep-12 15:30N 37°42' E 023°32'4 7.9
2017-Sep-12 15:00N 37°45' E 023°34'4 8.2
2017-Sep-12 14:30N 37°49' E 023°36'4 8.4
2017-Sep-12 14:00N 37°53' E 023°38'3 5.3
2017-Sep-12 13:28N 37°56' E 023°39'0 0.0
2017-Sep-12 12:58N 37°56' E 023°39'0 0.0
2017-Sep-12 12:28N 37°56' E 023°39'0 0.0
2017-Sep-12 12:00N 37°56' E 023°39'0 0.0
2017-Sep-12 11:30N 37°56' E 023°39'0 0.0
2017-Sep-12 10:58N 37°56' E 023°39'0 0.0
2017-Sep-12 10:30N 37°56' E 023°39'0 0.0
2017-Sep-12 09:54N 37°56' E 023°39'0 0.0
2017-Sep-12 09:30N 37°56' E 023°39'0 0.0
2017-Sep-12 08:56N 37°56' E 023°39'0 0.0
2017-Sep-12 08:20N 37°56' E 023°39'0 0.0
2017-Sep-12 07:59N 37°56' E 023°39'0 0.0
2017-Sep-12 07:28N 37°56' E 023°39'0 0.0
2017-Sep-12 06:55N 37°56' E 023°39'0 0.0
2017-Sep-12 06:22N 37°56' E 023°39'0 0.0
2017-Sep-12 05:55N 37°56' E 023°39'0 0.0
2017-Sep-12 05:27N 37°56' E 023°39'0 0.0
2017-Sep-12 04:39N 37°56' E 023°39'0 0.0
2017-Sep-12 04:30N 37°56' E 023°39'0 0.0
2017-Sep-12 03:59N 37°56' E 023°39'0 0.0
2017-Sep-12 03:26N 37°56' E 023°39'0 0.0
2017-Sep-12 02:59N 37°56' E 023°39'0 0.0
2017-Sep-12 02:28N 37°56' E 023°39'0 0.0
2017-Sep-12 01:52N 37°56' E 023°39'0 0.0
2017-Sep-12 01:25N 37°56' E 023°39'0 0.0
2017-Sep-12 01:01N 37°56' E 023°39'0 0.0
2017-Sep-12 00:27N 37°56' E 023°39'0 0.0
2017-Sep-11 23:57N 37°56' E 023°39'0 0.0
2017-Sep-11 23:30N 37°56' E 023°39'0 0.0
2017-Sep-11 22:59N 37°56' E 023°39'0 0.0
2017-Sep-11 22:29N 37°56' E 023°39'0 0.0
2017-Sep-11 21:59N 37°56' E 023°39'0 0.0
2017-Sep-11 21:28N 37°56' E 023°39'0 0.0
2017-Sep-11 20:58N 37°56' E 023°39'0 0.0
2017-Sep-11 20:19N 37°56' E 023°39'0 0.0
2017-Sep-11 20:01N 37°56' E 023°39'0 0.0
2017-Sep-11 19:21N 37°56' E 023°39'0 0.0
2017-Sep-11 19:00N 37°56' E 023°39'0 0.0
2017-Sep-11 18:14N 37°56' E 023°39'0 0.0
2017-Sep-11 17:59N 37°56' E 023°39'0 0.0
2017-Sep-11 17:26N 37°56' E 023°39'0 0.0
2017-Sep-11 16:53N 37°56' E 023°39'0 0.0
2017-Sep-11 16:16N 37°56' E 023°39'0 0.0
2017-Sep-11 15:46N 37°56' E 023°39'0 0.0
2017-Sep-11 15:28N 37°56' E 023°39'0 0.0
2017-Sep-11 15:00N 37°56' E 023°39'0 0.0
2017-Sep-11 14:30N 37°56' E 023°39'0 0.0
2017-Sep-11 14:00N 37°56' E 023°39'0 0.0
2017-Sep-11 13:20N 37°56' E 023°39'0 0.0
2017-Sep-11 12:56N 37°56' E 023°39'0 0.0
2017-Sep-11 12:20N 37°56' E 023°39'0 0.0
2017-Sep-11 11:59N 37°56' E 023°39'0 0.0
2017-Sep-11 11:25N 37°56' E 023°39'0 0.0
2017-Sep-11 10:55N 37°56' E 023°39'0 0.0
2017-Sep-11 10:25N 37°56' E 023°39'0 0.0
2017-Sep-11 09:57N 37°56' E 023°39'0 0.0
2017-Sep-11 09:24N 37°56' E 023°39'0 0.0
2017-Sep-11 08:54N 37°56' E 023°39'0 0.0
2017-Sep-11 08:30N 37°56' E 023°39'0 0.0
2017-Sep-11 07:56N 37°56' E 023°39'0 0.0
2017-Sep-11 07:26N 37°56' E 023°39'0 0.0
2017-Sep-11 06:53N 37°56' E 023°39'0 0.0
2017-Sep-11 06:28N 37°56' E 023°39'0 0.0
2017-Sep-11 05:58N 37°56' E 023°39'0 0.0
2017-Sep-11 05:28N 37°56' E 023°39'0 0.0
2017-Sep-11 05:00N 37°56' E 023°39'0 0.0
2017-Sep-11 04:30N 37°56' E 023°39'0 0.0
2017-Sep-11 03:54N 37°56' E 023°39'0 0.0
2017-Sep-11 03:30N 37°56' E 023°39'0 0.0
2017-Sep-11 02:56N 37°56' E 023°39'0 0.0
2017-Sep-11 02:26N 37°56' E 023°39'0 0.0
2017-Sep-11 01:59N 37°56' E 023°39'0 0.0
2017-Sep-11 01:28N 37°56' E 023°39'0 0.0
2017-Sep-11 00:55N 37°56' E 023°39'0 0.0
2017-Sep-11 00:28N 37°56' E 023°39'0 0.0
2017-Sep-10 23:54N 37°56' E 023°39'0 0.0
2017-Sep-10 23:27N 37°56' E 023°39'0 0.0
2017-Sep-10 23:00N 37°56' E 023°39'0 0.0
2017-Sep-10 22:26N 37°56' E 023°39'0 0.0
2017-Sep-10 21:59N 37°56' E 023°39'0 0.0
2017-Sep-10 21:29N 37°56' E 023°39'0 0.0
2017-Sep-10 20:59N 37°56' E 023°39'0 0.0
2017-Sep-10 20:25N 37°56' E 023°39'0 0.0
2017-Sep-10 19:58N 37°56' E 023°39'0 0.0
2017-Sep-10 19:28N 37°56' E 023°39'0 0.0
2017-Sep-10 18:54N 37°56' E 023°39'0 0.0
2017-Sep-10 18:30N 37°56' E 023°39'0 0.0
2017-Sep-10 18:00N 37°56' E 023°39'0 0.0
2017-Sep-10 17:26N 37°56' E 023°39'0 0.0
2017-Sep-10 16:53N 37°56' E 023°39'0 0.0
2017-Sep-10 16:26N 37°56' E 023°39'0 0.0
2017-Sep-10 15:53N 37°56' E 023°39'0 0.0
2017-Sep-10 15:28N 37°56' E 023°39'0 0.0
2017-Sep-10 14:55N 37°56' E 023°39'0 0.0
2017-Sep-10 13:54N 37°56' E 023°39'0 0.0
2017-Sep-10 13:30N 37°56' E 023°39'0 0.0
2017-Sep-10 13:00N 37°56' E 023°39'0 0.0
2017-Sep-10 12:29N 37°56' E 023°39'0 0.0
2017-Sep-10 11:56N 37°56' E 023°39'0 0.0
2017-Sep-10 11:29N 37°56' E 023°39'0 0.0
2017-Sep-10 10:49N 37°56' E 023°39'0 0.0
2017-Sep-10 10:28N 37°56' E 023°39'0 0.0
2017-Sep-10 09:58N 37°56' E 023°39'0 0.0
2017-Sep-10 09:28N 37°56' E 023°39'0 0.0
2017-Sep-10 09:00N 37°56' E 023°39'0 0.0
2017-Sep-10 08:30N 37°56' E 023°39'0 0.0
2017-Sep-10 07:57N 37°56' E 023°39'0 0.0
2017-Sep-10 07:30N 37°56' E 023°39'0 0.0
2017-Sep-10 06:59N 37°56' E 023°39'0 0.0
2017-Sep-10 06:26N 37°56' E 023°39'0 0.0
2017-Sep-10 05:59N 37°56' E 023°39'0 0.0
2017-Sep-10 05:25N 37°56' E 023°39'0 0.0
2017-Sep-10 04:55N 37°56' E 023°39'0 0.0
2017-Sep-10 04:28N 37°56' E 023°39'0 0.0
2017-Sep-10 04:00N 37°56' E 023°39'0 0.0
2017-Sep-10 03:30N 37°56' E 023°39'0 0.0
2017-Sep-10 03:00N 37°56' E 023°39'0 0.0
2017-Sep-10 02:29N 37°56' E 023°39'0 0.0
2017-Sep-10 01:59N 37°56' E 023°39'0 0.0
2017-Sep-10 01:26N 37°56' E 023°39'0 0.0
2017-Sep-10 00:49N 37°56' E 023°39'0 0.0
2017-Sep-10 00:28N 37°56' E 023°39'0 0.0
2017-Sep-09 23:58N 37°56' E 023°39'0 0.0
2017-Sep-09 23:28N 37°56' E 023°39'0 0.0
2017-Sep-09 23:00N 37°56' E 023°39'0 0.0
2017-Sep-09 22:30N 37°56' E 023°39'0 0.0
2017-Sep-09 21:57N 37°56' E 023°39'0 0.0
2017-Sep-09 21:26N 37°56' E 023°39'0 0.0
2017-Sep-09 20:56N 37°56' E 023°39'0 0.0
2017-Sep-09 20:26N 37°56' E 023°39'0 0.0
2017-Sep-09 19:55N 37°56' E 023°39'0 0.0
2017-Sep-09 19:28N 37°56' E 023°39'0 0.0
2017-Sep-09 18:58N 37°56' E 023°39'0 0.0
2017-Sep-09 18:18N 37°56' E 023°39'0 0.0
2017-Sep-09 18:00N 37°56' E 023°39'0 0.0
2017-Sep-09 17:30N 37°56' E 023°39'0 0.0
2017-Sep-09 17:00N 37°56' E 023°39'0 0.0
2017-Sep-09 16:29N 37°56' E 023°39'0 0.0
2017-Sep-09 15:53N 37°56' E 023°39'0 0.0
2017-Sep-09 15:29N 37°56' E 023°39'0 0.0
2017-Sep-09 14:49N 37°56' E 023°39'0 0.0
2017-Sep-09 14:28N 37°56' E 023°39'0 0.0
2017-Sep-09 13:58N 37°56' E 023°39'0 0.0
2017-Sep-09 13:27N 37°56' E 023°39'0 0.0
2017-Sep-09 12:57N 37°56' E 023°39'0 0.0
2017-Sep-09 12:30N 37°56' E 023°39'0 0.0
2017-Sep-09 11:57N 37°56' E 023°39'0 0.0
2017-Sep-09 11:26N 37°56' E 023°39'0 0.0
2017-Sep-09 10:56N 37°56' E 023°39'0 0.0
2017-Sep-09 10:29N 37°56' E 023°39'0 0.0
2017-Sep-09 09:55N 37°56' E 023°39'0 0.0
2017-Sep-09 09:28N 37°56' E 023°39'0 0.0
2017-Sep-09 08:58N 37°56' E 023°39'0 0.0
2017-Sep-09 08:30N 37°56' E 023°39'0 0.0
2017-Sep-09 08:00N 37°56' E 023°39'0 0.0
2017-Sep-09 07:30N 37°56' E 023°39'0 0.0
2017-Sep-09 06:56N 37°56' E 023°39'0 0.0
2017-Sep-09 06:26N 37°56' E 023°39'0 0.0
2017-Sep-09 05:59N 37°56' E 023°39'0 0.0
2017-Sep-09 05:29N 37°56' E 023°39'0 0.0
2017-Sep-09 04:58N 37°56' E 023°39'0 0.0
2017-Sep-09 04:28N 37°56' E 023°39'0 0.0
2017-Sep-09 03:55N 37°56' E 023°39'0 0.0
2017-Sep-09 03:27N 37°56' E 023°39'0 0.0
2017-Sep-09 02:57N 37°56' E 023°39'0 0.0
2017-Sep-09 02:30N 37°56' E 023°39'0 0.0
2017-Sep-09 01:59N 37°56' E 023°39'0 0.0
2017-Sep-09 01:29N 37°56' E 023°39'0 0.0
2017-Sep-09 00:56N 37°56' E 023°39'0 0.0
2017-Sep-09 00:26N 37°56' E 023°39'0 0.0
2017-Sep-08 23:58N 37°56' E 023°39'0 0.0
2017-Sep-08 23:16N 37°56' E 023°39'0 0.0
2017-Sep-08 22:58N 37°56' E 023°39'0 0.0
2017-Sep-08 22:18N 37°56' E 023°39'0 0.0
2017-Sep-08 21:57N 37°56' E 023°39'0 0.0
2017-Sep-08 21:30N 37°56' E 023°39'0 0.0
2017-Sep-08 20:59N 37°56' E 023°39'0 0.0
2017-Sep-08 20:26N 37°56' E 023°39'0 0.0
2017-Sep-08 19:59N 37°56' E 023°39'0 0.0
2017-Sep-08 19:25N 37°56' E 023°39'0 0.0
2017-Sep-08 18:58N 37°56' E 023°39'0 0.0
2017-Sep-08 18:28N 37°56' E 023°39'0 0.0
2017-Sep-08 17:58N 37°56' E 023°39'0 0.0
2017-Sep-08 17:27N 37°56' E 023°39'0 0.0
2017-Sep-08 17:00N 37°56' E 023°39'0 0.0
2017-Sep-08 16:30N 37°56' E 023°39'0 0.0
2017-Sep-08 15:59N 37°56' E 023°39'0 0.0
2017-Sep-08 15:29N 37°56' E 023°39'0 0.0
2017-Sep-08 14:59N 37°56' E 023°39'0 0.0
2017-Sep-08 14:29N 37°56' E 023°39'0 0.0
2017-Sep-08 13:58N 37°56' E 023°39'0 0.0
2017-Sep-08 13:28N 37°56' E 023°39'0 0.0
2017-Sep-08 12:58N 37°56' E 023°39'0 0.0
2017-Sep-08 12:30N 37°56' E 023°39'0 0.0
2017-Sep-08 11:54N 37°56' E 023°39'0 0.0
2017-Sep-08 11:27N 37°56' E 023°39'0 0.0
2017-Sep-08 10:59N 37°56' E 023°39'0 0.0
2017-Sep-08 10:20N 37°56' E 023°39'0 0.0
2017-Sep-08 09:59N 37°56' E 023°39'0 0.0
2017-Sep-08 09:22N 37°56' E 023°39'0 0.0
2017-Sep-08 08:58N 37°56' E 023°39'0 0.0
2017-Sep-08 08:28N 37°56' E 023°39'0 0.0
2017-Sep-08 07:45N 37°56' E 023°39'0 0.0
2017-Sep-08 07:24N 37°56' E 023°39'0 0.0
2017-Sep-08 06:57N 37°56' E 023°39'0 0.0
2017-Sep-08 06:27N 37°56' E 023°39'0 0.0
2017-Sep-08 05:56N 37°56' E 023°39'0 0.0
2017-Sep-08 05:20N 37°56' E 023°39'0 0.0
2017-Sep-08 04:56N 37°56' E 023°39'0 0.0
2017-Sep-08 04:22N 37°56' E 023°39'0 0.0
2017-Sep-08 03:58N 37°56' E 023°39'0 0.0
2017-Sep-08 03:28N 37°56' E 023°39'0 0.0
2017-Sep-08 02:58N 37°56' E 023°39'0 0.0
2017-Sep-08 02:30N 37°56' E 023°39'0 0.0
2017-Sep-08 02:00N 37°56' E 023°39'0 0.0
2017-Sep-08 01:30N 37°56' E 023°39'0 0.0
2017-Sep-08 00:54N 37°56' E 023°39'1 3.4
2017-Sep-08 00:30N 37°55' E 023°38'4 8.5
2017-Sep-08 00:00N 37°51' E 023°37'4 8.6
2017-Sep-07 23:30N 37°46' E 023°36'4 8.7
2017-Sep-07 23:00N 37°42' E 023°36'4 8.9
2017-Sep-07 22:30N 37°38' E 023°35'4 8.3
2017-Sep-07 22:00N 37°33' E 023°35'  
2017-Sep-04 14:57N 35°22' E 024°29'0 0.0
2017-Sep-04 14:30N 35°22' E 024°29'0 0.0
2017-Sep-04 14:00N 35°22' E 024°29'0 0.0
2017-Sep-04 13:27N 35°22' E 024°29'0 0.0
2017-Sep-04 12:59N 35°22' E 024°29'0 0.0
2017-Sep-04 12:29N 35°22' E 024°29'0 0.0
2017-Sep-04 11:59N 35°22' E 024°29'0 0.0
2017-Sep-04 11:28N 35°22' E 024°29'0 0.0
2017-Sep-04 10:58N 35°22' E 024°29'0 0.0
2017-Sep-04 10:28N 35°22' E 024°29'0 0.0
2017-Sep-04 10:01N 35°22' E 024°29'0 0.0
2017-Sep-04 09:30N 35°22' E 024°29'0 0.0
2017-Sep-04 09:00N 35°22' E 024°29'0 0.0
2017-Sep-04 08:30N 35°22' E 024°29'0 0.0
2017-Sep-04 07:59N 35°22' E 024°29'0 0.0
2017-Sep-04 07:29N 35°22' E 024°29'0 0.0
2017-Sep-04 06:59N 35°22' E 024°29'0 0.0
2017-Sep-04 06:30N 35°22' E 024°29'2 3.9
2017-Sep-04 06:00N 35°24' E 024°31'103 3.5
2017-Sep-03 00:14N 36°59' E 025°18'2 9.9
2017-Sep-03 00:00N 37°01' E 025°18'5 9.7
2017-Sep-02 23:30N 37°06' E 025°18'5 9.0
2017-Sep-02 23:00N 37°11' E 025°19'4 8.9
2017-Sep-02 22:30N 37°15' E 025°18'4 8.8
2017-Sep-02 22:00N 37°20' E 025°17'5 8.9
2017-Sep-02 21:30N 37°24' E 025°17'  
Track history (hours):
 
Tides and Currents Weather Stations Pressure Air Temp Water Temp Dewpoint Dewpoint Depression Visibility Wind Speed Wind Dir Waves Ship Positions

Harmony V

Last reported at 2017-Sep-12 21:25 UTC. Time now 2017-Sep-21 18:07 UTC.
Position N 37°29' E 023°30'.
Warning: this ship's position is 8 days out of date.

Length 56 m; draft 3.2 m.

Type: Ship. MMSI: 240937000.

Date/timePositionNaut miles runAvg speedWind from/ knotsBaromVisibWave heightAir tempDewpointWater temp
2017-Sep-12 21:25N 37°29' E 023°30'6 1.3
2017-Sep-12 16:37N 37°34' E 023°27'1 8.2
2017-Sep-12 16:30N 37°35' E 023°27'6 8.2
2017-Sep-12 15:45N 37°40' E 023°31'2 8.1
2017-Sep-12 15:30N 37°42' E 023°32'4 7.9
2017-Sep-12 15:00N 37°45' E 023°34'4 8.2
2017-Sep-12 14:30N 37°49' E 023°36'4 8.4
2017-Sep-12 14:00N 37°53' E 023°38'3 5.3
2017-Sep-12 13:28N 37°56' E 023°39'0 0.0
2017-Sep-12 12:58N 37°56' E 023°39'0 0.0
2017-Sep-12 12:28N 37°56' E 023°39'0 0.0
2017-Sep-12 12:00N 37°56' E 023°39'0 0.0
2017-Sep-12 11:30N 37°56' E 023°39'0 0.0
2017-Sep-12 10:58N 37°56' E 023°39'0 0.0
2017-Sep-12 10:30N 37°56' E 023°39'0 0.0
2017-Sep-12 09:54N 37°56' E 023°39'0 0.0
2017-Sep-12 09:30N 37°56' E 023°39'0 0.0
2017-Sep-12 08:56N 37°56' E 023°39'0 0.0
2017-Sep-12 08:20N 37°56' E 023°39'0 0.0
2017-Sep-12 07:59N 37°56' E 023°39'0 0.0
2017-Sep-12 07:28N 37°56' E 023°39'0 0.0
2017-Sep-12 06:55N 37°56' E 023°39'0 0.0
2017-Sep-12 06:22N 37°56' E 023°39'0 0.0
2017-Sep-12 05:55N 37°56' E 023°39'0 0.0
2017-Sep-12 05:27N 37°56' E 023°39'0 0.0
2017-Sep-12 04:39N 37°56' E 023°39'0 0.0
2017-Sep-12 04:30N 37°56' E 023°39'0 0.0
2017-Sep-12 03:59N 37°56' E 023°39'0 0.0
2017-Sep-12 03:26N 37°56' E 023°39'0 0.0
2017-Sep-12 02:59N 37°56' E 023°39'0 0.0
2017-Sep-12 02:28N 37°56' E 023°39'0 0.0
2017-Sep-12 01:52N 37°56' E 023°39'0 0.0
2017-Sep-12 01:25N 37°56' E 023°39'0 0.0
2017-Sep-12 01:01N 37°56' E 023°39'0 0.0
2017-Sep-12 00:27N 37°56' E 023°39'0 0.0
2017-Sep-11 23:57N 37°56' E 023°39'0 0.0
2017-Sep-11 23:30N 37°56' E 023°39'0 0.0
2017-Sep-11 22:59N 37°56' E 023°39'0 0.0
2017-Sep-11 22:29N 37°56' E 023°39'0 0.0
2017-Sep-11 21:59N 37°56' E 023°39'0 0.0
2017-Sep-11 21:28N 37°56' E 023°39'0 0.0
2017-Sep-11 20:58N 37°56' E 023°39'0 0.0
2017-Sep-11 20:19N 37°56' E 023°39'0 0.0
2017-Sep-11 20:01N 37°56' E 023°39'0 0.0
2017-Sep-11 19:21N 37°56' E 023°39'0 0.0
2017-Sep-11 19:00N 37°56' E 023°39'0 0.0
2017-Sep-11 18:14N 37°56' E 023°39'0 0.0
2017-Sep-11 17:59N 37°56' E 023°39'0 0.0
2017-Sep-11 17:26N 37°56' E 023°39'0 0.0
2017-Sep-11 16:53N 37°56' E 023°39'0 0.0
2017-Sep-11 16:16N 37°56' E 023°39'0 0.0
2017-Sep-11 15:46N 37°56' E 023°39'0 0.0
2017-Sep-11 15:28N 37°56' E 023°39'0 0.0
2017-Sep-11 15:00N 37°56' E 023°39'0 0.0
2017-Sep-11 14:30N 37°56' E 023°39'0 0.0
2017-Sep-11 14:00N 37°56' E 023°39'0 0.0
2017-Sep-11 13:20N 37°56' E 023°39'0 0.0
2017-Sep-11 12:56N 37°56' E 023°39'0 0.0
2017-Sep-11 12:20N 37°56' E 023°39'0 0.0
2017-Sep-11 11:59N 37°56' E 023°39'0 0.0
2017-Sep-11 11:25N 37°56' E 023°39'0 0.0
2017-Sep-11 10:55N 37°56' E 023°39'0 0.0
2017-Sep-11 10:25N 37°56' E 023°39'0 0.0
2017-Sep-11 09:57N 37°56' E 023°39'0 0.0
2017-Sep-11 09:24N 37°56' E 023°39'0 0.0
2017-Sep-11 08:54N 37°56' E 023°39'0 0.0
2017-Sep-11 08:30N 37°56' E 023°39'0 0.0
2017-Sep-11 07:56N 37°56' E 023°39'0 0.0
2017-Sep-11 07:26N 37°56' E 023°39'0 0.0
2017-Sep-11 06:53N 37°56' E 023°39'0 0.0
2017-Sep-11 06:28N 37°56' E 023°39'0 0.0
2017-Sep-11 05:58N 37°56' E 023°39'0 0.0
2017-Sep-11 05:28N 37°56' E 023°39'0 0.0
2017-Sep-11 05:00N 37°56' E 023°39'0 0.0
2017-Sep-11 04:30N 37°56' E 023°39'0 0.0
2017-Sep-11 03:54N 37°56' E 023°39'0 0.0
2017-Sep-11 03:30N 37°56' E 023°39'0 0.0
2017-Sep-11 02:56N 37°56' E 023°39'0 0.0
2017-Sep-11 02:26N 37°56' E 023°39'0 0.0
2017-Sep-11 01:59N 37°56' E 023°39'0 0.0
2017-Sep-11 01:28N 37°56' E 023°39'0 0.0
2017-Sep-11 00:55N 37°56' E 023°39'0 0.0
2017-Sep-11 00:28N 37°56' E 023°39'0 0.0
2017-Sep-10 23:54N 37°56' E 023°39'0 0.0
2017-Sep-10 23:27N 37°56' E 023°39'0 0.0
2017-Sep-10 23:00N 37°56' E 023°39'0 0.0
2017-Sep-10 22:26N 37°56' E 023°39'0 0.0
2017-Sep-10 21:59N 37°56' E 023°39'0 0.0
2017-Sep-10 21:29N 37°56' E 023°39'0 0.0
2017-Sep-10 20:59N 37°56' E 023°39'0 0.0
2017-Sep-10 20:25N 37°56' E 023°39'0 0.0
2017-Sep-10 19:58N 37°56' E 023°39'0 0.0
2017-Sep-10 19:28N 37°56' E 023°39'0 0.0
2017-Sep-10 18:54N 37°56' E 023°39'0 0.0
2017-Sep-10 18:30N 37°56' E 023°39'0 0.0
2017-Sep-10 18:00N 37°56' E 023°39'0 0.0
2017-Sep-10 17:26N 37°56' E 023°39'0 0.0
2017-Sep-10 16:53N 37°56' E 023°39'0 0.0
2017-Sep-10 16:26N 37°56' E 023°39'0 0.0
2017-Sep-10 15:53N 37°56' E 023°39'0 0.0
2017-Sep-10 15:28N 37°56' E 023°39'0 0.0
2017-Sep-10 14:55N 37°56' E 023°39'0 0.0
2017-Sep-10 13:54N 37°56' E 023°39'0 0.0
2017-Sep-10 13:30N 37°56' E 023°39'0 0.0
2017-Sep-10 13:00N 37°56' E 023°39'0 0.0
2017-Sep-10 12:29N 37°56' E 023°39'0 0.0
2017-Sep-10 11:56N 37°56' E 023°39'0 0.0
2017-Sep-10 11:29N 37°56' E 023°39'0 0.0
2017-Sep-10 10:49N 37°56' E 023°39'0 0.0
2017-Sep-10 10:28N 37°56' E 023°39'0 0.0
2017-Sep-10 09:58N 37°56' E 023°39'0 0.0
2017-Sep-10 09:28N 37°56' E 023°39'0 0.0
2017-Sep-10 09:00N 37°56' E 023°39'0 0.0
2017-Sep-10 08:30N 37°56' E 023°39'0 0.0
2017-Sep-10 07:57N 37°56' E 023°39'0 0.0
2017-Sep-10 07:30N 37°56' E 023°39'0 0.0
2017-Sep-10 06:59N 37°56' E 023°39'0 0.0
2017-Sep-10 06:26N 37°56' E 023°39'0 0.0
2017-Sep-10 05:59N 37°56' E 023°39'0 0.0
2017-Sep-10 05:25N 37°56' E 023°39'0 0.0
2017-Sep-10 04:55N 37°56' E 023°39'0 0.0
2017-Sep-10 04:28N 37°56' E 023°39'0 0.0
2017-Sep-10 04:00N 37°56' E 023°39'0 0.0
2017-Sep-10 03:30N 37°56' E 023°39'0 0.0
2017-Sep-10 03:00N 37°56' E 023°39'0 0.0
2017-Sep-10 02:29N 37°56' E 023°39'0 0.0
2017-Sep-10 01:59N 37°56' E 023°39'0 0.0
2017-Sep-10 01:26N 37°56' E 023°39'0 0.0
2017-Sep-10 00:49N 37°56' E 023°39'0 0.0
2017-Sep-10 00:28N 37°56' E 023°39'0 0.0
2017-Sep-09 23:58N 37°56' E 023°39'0 0.0
2017-Sep-09 23:28N 37°56' E 023°39'0 0.0
2017-Sep-09 23:00N 37°56' E 023°39'0 0.0
2017-Sep-09 22:30N 37°56' E 023°39'0 0.0
2017-Sep-09 21:57N 37°56' E 023°39'0 0.0
2017-Sep-09 21:26N 37°56' E 023°39'0 0.0
2017-Sep-09 20:56N 37°56' E 023°39'0 0.0
2017-Sep-09 20:26N 37°56' E 023°39'0 0.0
2017-Sep-09 19:55N 37°56' E 023°39'0 0.0
2017-Sep-09 19:28N 37°56' E 023°39'0 0.0
2017-Sep-09 18:58N 37°56' E 023°39'0 0.0
2017-Sep-09 18:18N 37°56' E 023°39'0 0.0
2017-Sep-09 18:00N 37°56' E 023°39'0 0.0
2017-Sep-09 17:30N 37°56' E 023°39'0 0.0
2017-Sep-09 17:00N 37°56' E 023°39'0 0.0
2017-Sep-09 16:29N 37°56' E 023°39'0 0.0
2017-Sep-09 15:53N 37°56' E 023°39'0 0.0
2017-Sep-09 15:29N 37°56' E 023°39'0 0.0
2017-Sep-09 14:49N 37°56' E 023°39'0 0.0
2017-Sep-09 14:28N 37°56' E 023°39'0 0.0
2017-Sep-09 13:58N 37°56' E 023°39'0 0.0
2017-Sep-09 13:27N 37°56' E 023°39'0 0.0
2017-Sep-09 12:57N 37°56' E 023°39'0 0.0
2017-Sep-09 12:30N 37°56' E 023°39'0 0.0
2017-Sep-09 11:57N 37°56' E 023°39'0 0.0
2017-Sep-09 11:26N 37°56' E 023°39'0 0.0
2017-Sep-09 10:56N 37°56' E 023°39'0 0.0
2017-Sep-09 10:29N 37°56' E 023°39'0 0.0
2017-Sep-09 09:55N 37°56' E 023°39'0 0.0
2017-Sep-09 09:28N 37°56' E 023°39'0 0.0
2017-Sep-09 08:58N 37°56' E 023°39'0 0.0
2017-Sep-09 08:30N 37°56' E 023°39'0 0.0
2017-Sep-09 08:00N 37°56' E 023°39'0 0.0
2017-Sep-09 07:30N 37°56' E 023°39'0 0.0
2017-Sep-09 06:56N 37°56' E 023°39'0 0.0
2017-Sep-09 06:26N 37°56' E 023°39'0 0.0
2017-Sep-09 05:59N 37°56' E 023°39'0 0.0
2017-Sep-09 05:29N 37°56' E 023°39'0 0.0
2017-Sep-09 04:58N 37°56' E 023°39'0 0.0
2017-Sep-09 04:28N 37°56' E 023°39'0 0.0
2017-Sep-09 03:55N 37°56' E 023°39'0 0.0
2017-Sep-09 03:27N 37°56' E 023°39'0 0.0
2017-Sep-09 02:57N 37°56' E 023°39'0 0.0
2017-Sep-09 02:30N 37°56' E 023°39'0 0.0
2017-Sep-09 01:59N 37°56' E 023°39'0 0.0
2017-Sep-09 01:29N 37°56' E 023°39'0 0.0
2017-Sep-09 00:56N 37°56' E 023°39'0 0.0
2017-Sep-09 00:26N 37°56' E 023°39'0 0.0
2017-Sep-08 23:58N 37°56' E 023°39'0 0.0
2017-Sep-08 23:16N 37°56' E 023°39'0 0.0
2017-Sep-08 22:58N 37°56' E 023°39'0 0.0
2017-Sep-08 22:18N 37°56' E 023°39'0 0.0
2017-Sep-08 21:57N 37°56' E 023°39'0 0.0
2017-Sep-08 21:30N 37°56' E 023°39'0 0.0
2017-Sep-08 20:59N 37°56' E 023°39'0 0.0
2017-Sep-08 20:26N 37°56' E 023°39'0 0.0
2017-Sep-08 19:59N 37°56' E 023°39'0 0.0
2017-Sep-08 19:25N 37°56' E 023°39'0 0.0
2017-Sep-08 18:58N 37°56' E 023°39'0 0.0
2017-Sep-08 18:28N 37°56' E 023°39'0 0.0
2017-Sep-08 17:58N 37°56' E 023°39'0 0.0
2017-Sep-08 17:27N 37°56' E 023°39'0 0.0
2017-Sep-08 17:00N 37°56' E 023°39'0 0.0
2017-Sep-08 16:30N 37°56' E 023°39'0 0.0
2017-Sep-08 15:59N 37°56' E 023°39'0 0.0
2017-Sep-08 15:29N 37°56' E 023°39'0 0.0
2017-Sep-08 14:59N 37°56' E 023°39'0 0.0
2017-Sep-08 14:29N 37°56' E 023°39'0 0.0
2017-Sep-08 13:58N 37°56' E 023°39'0 0.0
2017-Sep-08 13:28N 37°56' E 023°39'0 0.0
2017-Sep-08 12:58N 37°56' E 023°39'0 0.0
2017-Sep-08 12:30N 37°56' E 023°39'0 0.0
2017-Sep-08 11:54N 37°56' E 023°39'0 0.0
2017-Sep-08 11:27N 37°56' E 023°39'0 0.0
2017-Sep-08 10:59N 37°56' E 023°39'0 0.0
2017-Sep-08 10:20N 37°56' E 023°39'0 0.0
2017-Sep-08 09:59N 37°56' E 023°39'0 0.0
2017-Sep-08 09:22N 37°56' E 023°39'0 0.0
2017-Sep-08 08:58N 37°56' E 023°39'0 0.0
2017-Sep-08 08:28N 37°56' E 023°39'0 0.0
2017-Sep-08 07:45N 37°56' E 023°39'0 0.0
2017-Sep-08 07:24N 37°56' E 023°39'0 0.0
2017-Sep-08 06:57N 37°56' E 023°39'0 0.0
2017-Sep-08 06:27N 37°56' E 023°39'0 0.0
2017-Sep-08 05:56N 37°56' E 023°39'0 0.0
2017-Sep-08 05:20N 37°56' E 023°39'0 0.0
2017-Sep-08 04:56N 37°56' E 023°39'0 0.0
2017-Sep-08 04:22N 37°56' E 023°39'0 0.0
2017-Sep-08 03:58N 37°56' E 023°39'0 0.0
2017-Sep-08 03:28N 37°56' E 023°39'0 0.0
2017-Sep-08 02:58N 37°56' E 023°39'0 0.0
2017-Sep-08 02:30N 37°56' E 023°39'0 0.0
2017-Sep-08 02:00N 37°56' E 023°39'0 0.0
2017-Sep-08 01:30N 37°56' E 023°39'0 0.0
2017-Sep-08 00:54N 37°56' E 023°39'1 3.4
2017-Sep-08 00:30N 37°55' E 023°38'4 8.5
2017-Sep-08 00:00N 37°51' E 023°37'4 8.6
2017-Sep-07 23:30N 37°46' E 023°36'4 8.7
2017-Sep-07 23:00N 37°42' E 023°36'4 8.9
2017-Sep-07 22:30N 37°38' E 023°35'4 8.3
2017-Sep-07 22:00N 37°33' E 023°35'  
2017-Sep-04 14:57N 35°22' E 024°29'0 0.0
2017-Sep-04 14:30N 35°22' E 024°29'0 0.0
2017-Sep-04 14:00N 35°22' E 024°29'0 0.0
2017-Sep-04 13:27N 35°22' E 024°29'0 0.0
2017-Sep-04 12:59N 35°22' E 024°29'0 0.0
2017-Sep-04 12:29N 35°22' E 024°29'0 0.0
2017-Sep-04 11:59N 35°22' E 024°29'0 0.0
2017-Sep-04 11:28N 35°22' E 024°29'0 0.0
2017-Sep-04 10:58N 35°22' E 024°29'0 0.0
2017-Sep-04 10:28N 35°22' E 024°29'0 0.0
2017-Sep-04 10:01N 35°22' E 024°29'0 0.0
2017-Sep-04 09:30N 35°22' E 024°29'0 0.0
2017-Sep-04 09:00N 35°22' E 024°29'0 0.0
2017-Sep-04 08:30N 35°22' E 024°29'0 0.0
2017-Sep-04 07:59N 35°22' E 024°29'0 0.0
2017-Sep-04 07:29N 35°22' E 024°29'0 0.0
2017-Sep-04 06:59N 35°22' E 024°29'0 0.0
2017-Sep-04 06:30N 35°22' E 024°29'2 3.9
2017-Sep-04 06:00N 35°24' E 024°31'103 3.5
2017-Sep-03 00:14N 36°59' E 025°18'2 9.9
2017-Sep-03 00:00N 37°01' E 025°18'5 9.7
2017-Sep-02 23:30N 37°06' E 025°18'5 9.0
2017-Sep-02 23:00N 37°11' E 025°19'4 8.9
2017-Sep-02 22:30N 37°15' E 025°18'4 8.8
2017-Sep-02 22:00N 37°20' E 025°17'5 8.9
2017-Sep-02 21:30N 37°24' E 025°17'  

Dump ship's entire track history